Time;durP1;ratioP1;P1;durP2;ratioP2;P2;SDS_P1;SDS_P2;PMS_P1;PMS_P2;Temp;Humidity;BMP_temperature;BMP_pressure;BME280_temperature;BME280_humidity;BME280_pressure;Samples;Min_cycle;Max_cycle;Signal;HPM_P1;HPM_P2
2022/10/19 00:01:11;;;;;;;7.97;2.00;;;11.50;99.90;;;;;;5011878;28;20125;-66
2022/10/19 00:03:38;;;;;;;4.90;2.13;;;11.60;99.90;;;;;;5011406;28;20042;-65
2022/10/19 00:06:11;;;;;;;10.30;1.98;;;11.40;99.90;;;;;;5011736;28;20038;-65
2022/10/19 00:08:36;;;;;;;12.32;2.35;;;11.60;99.90;;;;;;5012124;28;20121;-65
2022/10/19 00:11:02;;;;;;;7.10;1.65;;;11.60;99.90;;;;;;5011982;28;20080;-65
2022/10/19 00:13:27;;;;;;;5.35;1.73;;;11.60;99.90;;;;;;5011609;28;20048;-65
2022/10/19 00:15:53;;;;;;;9.73;2.17;;;11.50;99.90;;;;;;5011731;28;20046;-65
2022/10/19 00:18:19;;;;;;;5.05;2.28;;;11.40;99.90;;;;;;5011877;28;20041;-65
2022/10/19 00:20:44;;;;;;;4.78;1.73;;;11.40;99.90;;;;;;5011572;28;20443;-65
2022/10/19 00:23:10;;;;;;;10.32;2.38;;;11.50;99.90;;;;;;5011357;28;20038;-65
2022/10/19 00:25:37;;;;;;;13.25;2.28;;;11.50;99.90;;;;;;5011713;28;20117;-66
2022/10/19 00:28:03;;;;;;;7.18;2.25;;;11.50;99.90;;;;;;5011801;28;20033;-65
2022/10/19 00:30:28;;;;;;;8.98;1.85;;;11.50;99.90;;;;;;5011771;28;20049;-66
2022/10/19 00:32:54;;;;;;;6.32;1.95;;;11.40;99.90;;;;;;5011246;28;20072;-66
2022/10/19 00:35:20;;;;;;;8.88;2.08;;;11.60;99.90;;;;;;5011480;28;20790;-66
2022/10/19 00:37:45;;;;;;;5.45;1.80;;;11.40;99.90;;;;;;5011478;28;20611;-66
2022/10/19 00:40:11;;;;;;;8.82;2.15;;;11.50;99.90;;;;;;5011611;28;20042;-65
2022/10/19 00:42:37;;;;;;;7.68;1.83;;;11.30;99.90;;;;;;5011051;28;20492;-65
2022/10/19 00:45:13;;;;;;;6.18;1.70;;;11.30;99.90;;;;;;5011625;28;20038;-66
2022/10/19 00:47:40;;;;;;;10.68;2.17;;;11.40;99.90;;;;;;5011442;28;20069;-65
2022/10/19 00:50:05;;;;;;;6.40;2.30;;;11.40;99.90;;;;;;5014013;28;20057;-66
2022/10/19 00:52:31;;;;;;;5.57;1.60;;;11.40;99.90;;;;;;5015072;28;20042;-65
2022/10/19 00:54:58;;;;;;;9.25;1.80;;;11.40;99.90;;;;;;5015276;28;20542;-66
2022/10/19 00:57:27;;;;;;;7.70;1.73;;;11.40;99.90;;;;;;5015102;28;20518;-66
2022/10/19 00:59:53;;;;;;;5.22;1.73;;;11.50;99.90;;;;;;5014933;28;20455;-65
2022/10/19 01:02:18;;;;;;;7.68;2.35;;;11.40;99.90;;;;;;5014826;28;20037;-65
2022/10/19 01:04:47;;;;;;;8.18;2.60;;;11.40;99.90;;;;;;5015033;28;20037;-66
2022/10/19 01:07:13;;;;;;;3.63;1.80;;;11.50;99.90;;;;;;5015004;28;20518;-65
2022/10/19 01:09:39;;;;;;;6.80;1.92;;;11.60;99.90;;;;;;5020426;28;20041;-66
2022/10/19 01:12:20;;;;;;;11.02;2.80;;;11.60;99.90;;;;;;5023368;28;20046;-66
2022/10/19 01:15:04;;;;;;;6.38;2.08;;;11.70;99.90;;;;;;5026491;28;20029;-66
2022/10/19 01:17:53;;;;;;;7.78;2.22;;;11.50;99.90;;;;;;5034747;28;20049;-65
2022/10/19 01:20:40;;;;;;;5.05;1.77;;;11.70;99.90;;;;;;5034539;28;20041;-65
2022/10/19 01:23:34;;;;;;;5.07;2.08;;;11.60;99.90;;;;;;5034074;28;20098;-66
2022/10/19 01:26:27;;;;;;;11.23;2.10;;;11.50;99.90;;;;;;4994069;28;20081;-66
2022/10/19 01:29:10;;;;;;;4.50;1.50;;;11.70;99.90;;;;;;5034495;28;20043;-66
2022/10/19 01:32:12;;;;;;;6.75;1.95;;;11.60;99.90;;;;;;5034224;28;20052;-66
2022/10/19 01:34:53;;;;;;;5.30;1.92;;;11.80;99.90;;;;;;4992376;28;20142;-65
2022/10/19 01:37:27;;;;;;;8.60;1.92;;;11.70;99.90;;;;;;5034243;28;20057;-65
2022/10/19 01:40:08;;;;;;;4.68;1.55;;;11.60;99.90;;;;;;5034061;28;20042;-66
2022/10/19 01:42:45;;;;;;;3.60;1.38;;;11.60;99.90;;;;;;5033902;28;20045;-65
2022/10/19 01:45:36;;;;;;;11.95;1.98;;;11.70;99.90;;;;;;5032962;28;20091;-66
2022/10/19 01:48:09;;;;;;;6.95;1.50;;;11.80;99.90;;;;;;4993032;28;20047;-65
2022/10/19 01:50:38;;;;;;;;;;;11.80;99.90;;;;;;5034639;28;20514;-65
2022/10/19 01:53:07;;;;;;;8.32;1.30;;;11.70;99.90;;;;;;5033688;28;20004;-66
2022/10/19 01:55:34;;;;;;;7.55;1.40;;;11.80;99.90;;;;;;5033902;28;20045;-66
2022/10/19 01:58:04;;;;;;;5.30;1.20;;;11.70;99.90;;;;;;5032524;28;20049;-65
2022/10/19 02:00:33;;;;;;;5.13;1.13;;;11.80;99.90;;;;;;5032981;28;20073;-65
2022/10/19 02:03:00;;;;;;;5.75;1.25;;;11.80;99.90;;;;;;5033294;28;20060;-65
2022/10/19 02:05:30;;;;;;;6.70;1.23;;;11.90;99.90;;;;;;5033894;28;20038;-65
2022/10/19 02:08:02;;;;;;;6.90;1.10;;;11.90;99.90;;;;;;5033790;28;20044;-65
2022/10/19 02:10:30;;;;;;;8.45;1.23;;;11.90;99.90;;;;;;5033779;28;20091;-65
2022/10/19 02:12:57;;;;;;;7.82;1.20;;;11.90;99.90;;;;;;5033173;28;20369;-65
2022/10/19 02:15:25;;;;;;;4.38;1.80;;;12.00;99.90;;;;;;5032252;28;20059;-65
2022/10/19 02:17:55;;;;;;;5.70;1.27;;;11.90;99.90;;;;;;5033548;28;20080;-65
2022/10/19 02:20:21;;;;;;;7.15;1.00;;;12.00;99.90;;;;;;5033423;28;20041;-65
2022/10/19 02:22:47;;;;;;;5.90;1.00;;;11.90;99.90;;;;;;5032861;28;20449;-65
2022/10/19 02:25:13;;;;;;;5.20;1.83;;;12.00;99.90;;;;;;5033317;28;20033;-66
2022/10/19 02:27:40;;;;;;;5.80;1.27;;;12.00;99.90;;;;;;5033269;28;20504;-65
2022/10/19 02:30:08;;;;;;;6.22;1.13;;;11.90;99.90;;;;;;5032202;28;20090;-65
2022/10/19 02:32:34;;;;;;;4.93;1.08;;;12.00;99.90;;;;;;5032751;28;20507;-66
2022/10/19 02:35:00;;;;;;;4.90;1.10;;;12.00;99.90;;;;;;5033124;28;20060;-66
2022/10/19 02:37:25;;;;;;;5.55;1.00;;;12.00;99.90;;;;;;5026464;28;20045;-66
2022/10/19 02:39:51;;;;;;;2.58;1.10;;;11.90;99.90;;;;;;5023361;28;20041;-65
2022/10/19 02:42:32;;;;;;;7.38;1.23;;;11.90;99.90;;;;;;5032566;28;20039;-65
2022/10/19 02:45:09;;;;;;;7.65;1.50;;;11.90;99.90;;;;;;5033115;28;20037;-65
2022/10/19 02:47:38;;;;;;;6.57;1.55;;;11.90;99.90;;;;;;5032969;28;20526;-66
2022/10/19 02:50:06;;;;;;;5.78;1.17;;;11.90;99.90;;;;;;5032918;28;20042;-66
2022/10/19 02:52:32;;;;;;;3.60;1.15;;;11.90;99.90;;;;;;5032354;28;20052;-65
2022/10/19 02:54:57;;;;;;;9.07;1.85;;;11.90;99.90;;;;;;5032926;28;20116;-66
2022/10/19 02:57:24;;;;;;;7.55;1.30;;;11.70;99.90;;;;;;5032838;28;20478;-65
2022/10/19 02:59:50;;;;;;;5.88;1.42;;;11.80;99.90;;;;;;5031521;28;20128;-65
2022/10/19 03:02:17;;;;;;;7.72;1.20;;;11.70;99.90;;;;;;5032286;28;20410;-65
2022/10/19 03:04:45;;;;;;;9.98;1.83;;;11.80;99.90;;;;;;5032439;28;20065;-65
2022/10/19 03:07:16;;;;;;;11.55;1.33;;;11.70;99.90;;;;;;5032406;28;20072;-65
2022/10/19 03:09:43;;;;;;;10.50;2.13;;;11.70;99.90;;;;;;5032677;28;20033;-65
2022/10/19 03:12:09;;;;;;;7.97;1.30;;;11.60;99.90;;;;;;5032695;28;20088;-65
2022/10/19 03:14:35;;;;;;;8.45;1.35;;;11.60;99.90;;;;;;5032404;28;20112;-65
2022/10/19 03:17:00;;;;;;;9.35;1.48;;;11.50;99.90;;;;;;5032481;28;20114;-65
2022/10/19 03:19:26;;;;;;;13.00;1.90;;;11.40;99.90;;;;;;5032438;28;20111;-65
2022/10/19 03:21:51;;;;;;;6.97;1.75;;;11.30;99.90;;;;;;5031916;28;20642;-66
2022/10/19 03:24:17;;;;;;;10.15;2.28;;;11.40;99.90;;;;;;5032097;28;20044;-65
2022/10/19 03:26:42;;;;;;;7.90;2.30;;;11.30;99.90;;;;;;5032285;28;20033;-65
2022/10/19 03:29:08;;;;;;;12.07;1.90;;;11.20;99.90;;;;;;5032224;28;20045;-66
2022/10/19 03:31:34;;;;;;;8.63;1.63;;;11.20;99.90;;;;;;5031984;28;20038;-65
2022/10/19 03:33:59;;;;;;;6.68;1.80;;;11.10;99.90;;;;;;5031751;28;20045;-66
2022/10/19 03:36:28;;;;;;;6.40;1.13;;;11.10;99.90;;;;;;5030909;28;20128;-66
2022/10/19 03:38:56;;;;;;;11.60;1.50;;;11.00;99.90;;;;;;5032142;28;20040;-65
2022/10/19 03:41:23;;;;;;;6.47;1.73;;;11.00;99.90;;;;;;5031952;28;20072;-66
2022/10/19 03:43:50;;;;;;;8.73;1.55;;;11.00;99.90;;;;;;5030239;28;20517;-66
2022/10/19 03:46:15;;;;;;;9.98;1.73;;;10.90;99.90;;;;;;5031706;28;20120;-66
2022/10/19 03:48:42;;;;;;;6.97;1.98;;;10.90;99.90;;;;;;5031796;28;20037;-65
2022/10/19 03:51:11;;;;;;;7.60;1.60;;;11.00;99.90;;;;;;5031756;28;20136;-65
2022/10/19 03:53:37;;;;;;;7.15;2.08;;;10.90;99.90;;;;;;5031557;28;20092;-66
2022/10/19 03:56:05;;;;;;;8.20;1.52;;;10.90;99.90;;;;;;5031731;28;20045;-66
2022/10/19 03:58:32;;;;;;;5.43;1.60;;;10.90;99.90;;;;;;5031779;28;20186;-66
2022/10/19 04:00:58;;;;;;;7.40;1.80;;;11.00;99.90;;;;;;5031569;28;20067;-66
2022/10/19 04:03:24;;;;;;;10.05;2.50;;;11.00;99.90;;;;;;5030032;28;20145;-66
2022/10/19 04:05:49;;;;;;;8.18;1.52;;;10.90;99.90;;;;;;5031532;28;20037;-65
2022/10/19 04:08:15;;;;;;;5.25;2.00;;;10.90;99.90;;;;;;5031760;28;20411;-65
2022/10/19 04:10:40;;;;;;;11.05;1.60;;;10.90;99.90;;;;;;5031678;28;20577;-66
2022/10/19 04:13:06;;;;;;;8.65;1.52;;;11.00;99.90;;;;;;5031285;28;20086;-66
2022/10/19 04:15:32;;;;;;;9.65;2.45;;;11.00;99.90;;;;;;5031529;28;20112;-66
2022/10/19 04:17:58;;;;;;;8.45;1.92;;;10.90;99.90;;;;;;5031492;28;20077;-66
2022/10/19 04:20:23;;;;;;;7.82;1.42;;;11.00;99.90;;;;;;5031427;28;20091;-65
2022/10/19 04:22:51;;;;;;;13.55;3.00;;;11.00;99.90;;;;;;5031110;28;20069;-67
2022/10/19 04:25:17;;;;;;;16.70;5.03;;;11.00;99.90;;;;;;5034463;28;20079;-66
2022/10/19 04:27:43;;;;;;;10.15;3.35;;;11.00;99.90;;;;;;5035596;28;20117;-66
2022/10/19 04:30:09;;;;;;;11.55;2.83;;;11.10;99.90;;;;;;5035486;28;20033;-66
2022/10/19 04:32:35;;;;;;;21.92;3.22;;;11.10;99.90;;;;;;5034999;28;20076;-66
2022/10/19 04:35:00;;;;;;;14.25;3.92;;;11.20;99.90;;;;;;5035263;28;20045;-66
2022/10/19 04:37:26;;;;;;;21.13;5.55;;;11.10;99.90;;;;;;5035285;28;20503;-66
2022/10/19 04:39:51;;;;;;;15.98;4.03;;;11.20;99.90;;;;;;5035263;28;20060;-66
2022/10/19 04:42:17;;;;;;;19.80;3.72;;;11.20;99.90;;;;;;5034993;28;20037;-65
2022/10/19 04:44:42;;;;;;;14.65;3.55;;;11.20;99.90;;;;;;5035086;28;20092;-65
2022/10/19 04:47:08;;;;;;;13.35;3.22;;;11.10;99.90;;;;;;5035010;28;20044;-66
2022/10/19 04:49:33;;;;;;;11.15;3.55;;;11.10;99.90;;;;;;5035349;28;20045;-66
2022/10/19 04:51:58;;;;;;;13.55;2.65;;;11.20;99.90;;;;;;5033917;28;20629;-65
2022/10/19 04:54:24;;;;;;;12.85;3.92;;;11.20;99.90;;;;;;5034807;28;20037;-66
2022/10/19 04:56:50;;;;;;;16.73;4.38;;;11.20;99.90;;;;;;5034987;28;20041;-66
2022/10/19 04:59:15;;;;;;;13.60;3.80;;;11.20;99.90;;;;;;5033553;28;20061;-66
2022/10/19 05:01:41;;;;;;;19.60;5.22;;;11.20;99.90;;;;;;5034681;28;20045;-66
2022/10/19 05:04:09;;;;;;;20.05;3.60;;;11.20;99.90;;;;;;5034720;28;20175;-66
2022/10/19 05:06:34;;;;;;;15.73;3.95;;;11.30;99.90;;;;;;5034792;28;20599;-66
2022/10/19 05:09:00;;;;;;;16.80;5.20;;;11.30;99.90;;;;;;5034845;28;20112;-66
2022/10/19 05:11:26;;;;;;;13.27;4.63;;;11.30;99.90;;;;;;5034483;28;20037;-65
2022/10/19 05:13:51;;;;;;;13.50;3.78;;;11.30;99.90;;;;;;5034326;28;20092;-65
2022/10/19 05:16:19;;;;;;;15.02;4.18;;;11.30;99.90;;;;;;5034519;28;20033;-65
2022/10/19 05:18:57;;;;;;;18.65;4.30;;;11.30;99.90;;;;;;5034491;28;20453;-66
2022/10/19 05:21:23;;;;;;;13.60;3.70;;;11.30;99.90;;;;;;5033074;28;20102;-66
2022/10/19 05:23:52;;;;;;;10.55;2.40;;;11.30;99.90;;;;;;5034391;28;20557;-65
2022/10/19 05:26:20;;;;;;;8.93;2.28;;;11.30;99.90;;;;;;5034408;28;20487;-65
2022/10/19 05:28:55;;;;;;;11.13;2.10;;;11.30;99.90;;;;;;5034268;28;20044;-66
2022/10/19 05:31:21;;;;;;;9.60;2.03;;;11.40;99.90;;;;;;5034298;28;20045;-66
2022/10/19 05:33:47;;;;;;;11.25;2.83;;;11.40;99.90;;;;;;5032776;28;20104;-65
2022/10/19 05:36:25;;;;;;;10.48;2.58;;;11.40;99.90;;;;;;5033072;28;20037;-66
2022/10/19 05:38:51;;;;;;;7.28;1.35;;;11.40;99.90;;;;;;5034539;28;20090;-66
2022/10/19 05:41:17;;;;;;;5.43;1.73;;;11.40;99.90;;;;;;5034741;28;20147;-66
2022/10/19 05:43:43;;;;;;;7.50;1.80;;;11.40;99.90;;;;;;5032669;28;20519;-66
2022/10/19 05:46:12;;;;;;;13.10;2.78;;;11.50;99.90;;;;;;5034319;28;20040;-66
2022/10/19 05:48:38;;;;;;;13.80;1.80;;;11.50;99.90;;;;;;5034158;28;20079;-66
2022/10/19 05:51:05;;;;;;;8.57;2.25;;;11.50;99.90;;;;;;5033974;28;20041;-66
2022/10/19 05:53:32;;;;;;;8.23;1.83;;;11.60;99.90;;;;;;5033566;28;20048;-66
2022/10/19 05:55:58;;;;;;;10.57;2.30;;;11.60;99.90;;;;;;5033655;28;20033;-66
2022/10/19 05:58:24;;;;;;;8.30;1.88;;;11.50;99.90;;;;;;5033747;28;20048;-65
2022/10/19 06:00:51;;;;;;;13.93;2.33;;;11.50;99.90;;;;;;5033657;28;20458;-65
2022/10/19 06:03:17;;;;;;;12.82;2.38;;;11.40;99.90;;;;;;5033393;28;20055;-65
2022/10/19 06:05:42;;;;;;;10.73;2.47;;;11.40;99.90;;;;;;5033647;28;20534;-66
2022/10/19 06:08:08;;;;;;;15.07;2.15;;;11.40;99.90;;;;;;5033582;28;20449;-66
2022/10/19 06:10:33;;;;;;;9.75;2.13;;;11.40;99.90;;;;;;5032919;28;20045;-66
2022/10/19 06:12:59;;;;;;;8.48;1.85;;;11.50;99.90;;;;;;5033118;28;20041;-68
2022/10/19 06:15:24;;;;;;;10.18;2.13;;;11.50;99.90;;;;;;5033738;28;20049;-67
2022/10/19 06:17:50;;;;;;;11.10;1.85;;;11.50;99.90;;;;;;5033605;28;20467;-66
2022/10/19 06:20:16;;;;;;;9.48;2.10;;;11.50;99.90;;;;;;5033318;28;20538;-66
2022/10/19 06:22:41;;;;;;;12.15;2.22;;;11.50;99.90;;;;;;5032829;28;20521;-66
2022/10/19 06:25:07;;;;;;;10.77;2.42;;;11.60;99.90;;;;;;5033346;28;20037;-66
2022/10/19 06:27:33;;;;;;;10.98;2.55;;;11.60;99.90;;;;;;5033108;28;20851;-66
2022/10/19 06:29:58;;;;;;;12.43;2.92;;;11.60;99.90;;;;;;5033333;28;20585;-67
2022/10/19 06:32:24;;;;;;;13.73;3.20;;;11.60;99.90;;;;;;5032914;28;20048;-69
2022/10/19 06:34:49;;;;;;;5.78;1.45;;;11.70;99.90;;;;;;5033231;28;20518;-69
2022/10/19 06:37:15;;;;;;;14.05;2.30;;;11.60;99.90;;;;;;5033009;28;20503;-69
2022/10/19 06:39:40;;;;;;;12.73;2.33;;;11.60;99.90;;;;;;5032820;28;20042;-69
2022/10/19 06:42:07;;;;;;;10.50;2.63;;;11.70;99.90;;;;;;5033651;28;20048;-69
2022/10/19 06:44:32;;;;;;;11.82;2.35;;;11.60;99.90;;;;;;5032911;28;20503;-70
2022/10/19 06:46:58;;;;;;;15.68;2.55;;;11.70;99.90;;;;;;5032708;28;20069;-69
2022/10/19 06:49:23;;;;;;;13.57;2.55;;;11.70;99.90;;;;;;5033743;28;20037;-69
2022/10/19 06:51:49;;;;;;;11.70;2.10;;;11.60;99.90;;;;;;5032862;28;20037;-69
2022/10/19 06:54:14;;;;;;;14.93;2.20;;;11.60;99.90;;;;;;5032445;28;20096;-69
2022/10/19 06:56:40;;;;;;;10.10;2.38;;;11.70;99.90;;;;;;5031636;28;20433;-69
2022/10/19 06:59:05;;;;;;;13.10;2.40;;;11.70;99.90;;;;;;5032732;28;20048;-69
2022/10/19 07:01:31;;;;;;;16.17;2.65;;;11.70;99.90;;;;;;5032673;28;20124;-69
2022/10/19 07:03:56;;;;;;;9.93;3.03;;;11.70;99.90;;;;;;5032419;28;20120;-69
2022/10/19 07:06:22;;;;;;;7.75;2.60;;;11.70;99.90;;;;;;5032587;28;20038;-69
2022/10/19 07:08:48;;;;;;;12.00;2.42;;;11.70;99.90;;;;;;5015910;28;20034;-70
2022/10/19 07:11:17;;;;;;;11.48;1.95;;;11.70;99.90;;;;;;5013223;28;20092;-69
2022/10/19 07:13:42;;;;;;;11.40;1.80;;;11.80;99.90;;;;;;5012372;28;20475;-69
2022/10/19 07:16:10;;;;;;;14.55;2.75;;;11.80;99.90;;;;;;5012798;28;20080;-69
2022/10/19 07:18:38;;;;;;;11.43;2.20;;;11.80;99.90;;;;;;5012701;28;20046;-69
2022/10/19 07:21:07;;;;;;;4.78;1.70;;;11.90;99.90;;;;;;5012531;28;20042;-69
2022/10/19 07:23:34;;;;;;;9.82;1.60;;;11.90;99.90;;;;;;5011951;28;20041;-69
2022/10/19 07:26:08;;;;;;;11.95;2.17;;;11.90;99.90;;;;;;5012748;28;20740;-69
2022/10/19 07:28:34;;;;;;;7.85;1.83;;;12.00;99.90;;;;;;5012739;28;20030;-69
2022/10/19 07:31:05;;;;;;;9.35;1.60;;;12.00;99.90;;;;;;5012317;28;20052;-68
2022/10/19 07:33:30;;;;;;;8.02;1.92;;;12.00;99.90;;;;;;5010707;28;20101;-68
2022/10/19 07:36:05;;;;;;;13.25;2.03;;;12.10;99.90;;;;;;5012199;28;20463;-69
2022/10/19 07:38:31;;;;;;;8.70;1.70;;;12.10;99.90;;;;;;5012292;28;20499;-69
2022/10/19 07:41:02;;;;;;;13.95;2.13;;;12.10;99.90;;;;;;5012297;28;20084;-69
2022/10/19 07:43:27;;;;;;;3.85;1.40;;;12.20;99.90;;;;;;5012051;28;20045;-71
2022/10/19 07:46:00;;;;;;;8.30;1.05;;;12.20;99.90;;;;;;5012110;28;20042;-70
2022/10/19 07:48:26;;;;;;;9.88;1.80;;;12.40;99.90;;;;;;5015882;28;20468;-70
2022/10/19 07:50:52;;;;;;;9.32;1.50;;;12.30;99.90;;;;;;5019821;28;20080;-70
2022/10/19 07:53:17;;;;;;;6.82;1.88;;;12.30;99.90;;;;;;5020945;28;20402;-70
2022/10/19 07:55:43;;;;;;;9.40;2.38;;;12.40;99.90;;;;;;5022532;28;20029;-70
2022/10/19 07:58:08;;;;;;;8.85;1.67;;;12.40;99.90;;;;;;5031527;28;20113;-70
2022/10/19 08:00:34;;;;;;;7.40;1.45;;;12.40;99.90;;;;;;5031247;28;20037;-70
2022/10/19 08:02:59;;;;;;;6.32;1.35;;;12.40;99.90;;;;;;5031184;28;20103;-70
2022/10/19 08:05:25;;;;;;;10.90;1.77;;;12.40;99.90;;;;;;5031501;28;20033;-70
2022/10/19 08:07:50;;;;;;;10.60;2.38;;;12.40;99.90;;;;;;5021327;28;20029;-70
2022/10/19 08:10:16;;;;;;;7.82;1.30;;;12.50;99.90;;;;;;5020334;28;20053;-70
2022/10/19 08:12:42;;;;;;;9.60;1.58;;;12.60;99.90;;;;;;5020501;28;20030;-70
2022/10/19 08:15:08;;;;;;;8.63;1.50;;;12.60;99.90;;;;;;5025803;28;20033;-70
2022/10/19 08:17:37;;;;;;;6.28;1.85;;;12.60;99.90;;;;;;5030369;28;20439;-70
2022/10/19 08:20:04;;;;;;;8.18;2.40;;;12.60;99.90;;;;;;5031395;28;20464;-70
2022/10/19 08:22:30;;;;;;;9.80;2.25;;;12.60;99.90;;;;;;5029754;28;20045;-70
2022/10/19 08:24:55;;;;;;;11.00;1.98;;;12.60;99.90;;;;;;5011710;28;20422;-70
2022/10/19 08:27:21;;;;;;;5.25;1.55;;;12.70;99.90;;;;;;5021883;28;20451;-70
2022/10/19 08:29:46;;;;;;;14.85;2.78;;;12.70;99.90;;;;;;5020145;28;20122;-70
2022/10/19 08:32:12;;;;;;;11.45;2.33;;;12.70;99.90;;;;;;5029840;28;20033;-70
2022/10/19 08:34:37;;;;;;;9.63;2.67;;;12.80;99.90;;;;;;5031308;28;20038;-69
2022/10/19 08:37:03;;;;;;;9.60;2.10;;;12.80;99.90;;;;;;5027428;28;20041;-70
2022/10/19 08:39:29;;;;;;;8.88;1.77;;;12.90;99.90;;;;;;4999713;28;20097;-69
2022/10/19 08:42:07;;;;;;;6.15;1.33;;;12.90;99.90;;;;;;5011209;28;20038;-70
2022/10/19 08:44:44;;;;;;;8.20;1.88;;;12.90;99.90;;;;;;5010945;28;20423;-70
2022/10/19 08:47:15;;;;;;;9.65;1.92;;;12.90;99.90;;;;;;5011557;28;20041;-69
2022/10/19 08:49:41;;;;;;;6.50;1.70;;;12.90;99.90;;;;;;5011441;28;20073;-69
2022/10/19 08:52:15;;;;;;;4.60;1.55;;;12.90;99.90;;;;;;4993731;28;20163;-69
2022/10/19 08:54:50;;;;;;;11.82;2.55;;;12.90;99.90;;;;;;5009779;28;20121;-69
2022/10/19 08:57:42;;;;;;;4.57;1.35;;;13.00;99.90;;;;;;5011107;28;20034;-69
2022/10/19 09:00:30;;;;;;;7.35;1.35;;;13.00;99.90;;;;;;5011055;28;20136;-69
2022/10/19 09:03:24;;;;;;;6.60;1.30;;;12.90;99.90;;;;;;5011000;28;20073;-69
2022/10/19 09:06:11;;;;;;;6.32;1.30;;;13.00;99.90;;;;;;5011052;28;20550;-70
2022/10/19 09:08:38;;;;;;;9.55;1.85;;;13.00;99.90;;;;;;5011152;28;20507;-69
2022/10/19 09:11:07;;;;;;;10.68;1.50;;;13.00;99.90;;;;;;5012108;28;20042;-69
2022/10/19 09:13:42;;;;;;;5.43;1.10;;;13.00;99.90;;;;;;5014360;28;20073;-70
2022/10/19 09:16:12;;;;;;;9.93;1.35;;;13.00;99.90;;;;;;5014361;28;20053;-69
2022/10/19 09:18:38;;;;;;;6.82;1.60;;;13.00;99.90;;;;;;5014627;28;20120;-69
2022/10/19 09:21:24;;;;;;;6.20;1.67;;;13.00;99.90;;;;;;5013250;28;20133;-69
2022/10/19 09:23:49;;;;;;;5.78;2.10;;;13.00;99.90;;;;;;5014156;28;20034;-70
2022/10/19 09:26:17;;;;;;;4.72;1.42;;;13.00;99.90;;;;;;5014115;28;20038;-69
2022/10/19 09:29:02;;;;;;;9.32;2.28;;;13.00;99.90;;;;;;5014582;28;20087;-70
2022/10/19 09:31:31;;;;;;;9.93;1.73;;;13.10;99.90;;;;;;5014533;28;20050;-70
2022/10/19 09:34:04;;;;;;;8.40;1.63;;;13.00;99.90;;;;;;5010664;28;20038;-70
2022/10/19 09:36:39;;;;;;;10.95;1.83;;;13.10;99.90;;;;;;5014310;28;20073;-70
2022/10/19 09:39:05;;;;;;;7.47;1.23;;;13.10;99.90;;;;;;5014102;28;20042;-70
2022/10/19 09:41:31;;;;;;;9.75;1.95;;;13.10;99.90;;;;;;5011760;28;20072;-70
2022/10/19 09:43:57;;;;;;;8.35;1.10;;;13.10;99.90;;;;;;5020444;28;20033;-70
2022/10/19 09:46:35;;;;;;;10.20;1.85;;;13.20;99.90;;;;;;5022236;28;20398;-70
2022/10/19 09:49:04;;;;;;;7.72;1.27;;;13.20;99.90;;;;;;5019063;28;20056;-71
2022/10/19 09:51:44;;;;;;;8.88;1.88;;;13.20;99.90;;;;;;5016793;28;20049;-70
2022/10/19 09:54:33;;;;;;;13.82;1.33;;;13.20;99.90;;;;;;5012503;28;20045;-70
2022/10/19 09:56:58;;;;;;;9.63;2.20;;;13.30;99.90;;;;;;5021287;28;20044;-70
2022/10/19 09:59:29;;;;;;;6.85;1.10;;;13.30;99.90;;;;;;5025270;28;20034;-70
2022/10/19 10:02:16;;;;;;;8.23;1.50;;;13.30;99.90;;;;;;5019489;28;20053;-71
2022/10/19 10:04:45;;;;;;;5.93;1.38;;;13.30;99.90;;;;;;5018872;28;20041;-70
2022/10/19 10:07:16;;;;;;;5.65;1.30;;;13.40;99.90;;;;;;5022980;28;20067;-70
2022/10/19 10:09:43;;;;;;;7.45;1.80;;;13.30;99.90;;;;;;5021342;28;20046;-70
2022/10/19 10:12:12;;;;;;;8.88;1.80;;;13.30;99.90;;;;;;5022059;28;20049;-70
2022/10/19 10:14:39;;;;;;;7.03;1.30;;;13.40;99.90;;;;;;5014866;28;20543;-70
2022/10/19 10:17:25;;;;;;;8.73;1.60;;;13.40;99.90;;;;;;5013737;28;20042;-70
2022/10/19 10:20:03;;;;;;;6.10;1.10;;;13.40;99.60;;;;;;5013470;28;20064;-70
2022/10/19 10:22:35;;;;;;;5.43;1.10;;;13.40;99.90;;;;;;5012354;28;20038;-69
2022/10/19 10:25:01;;;;;;;6.55;1.63;;;13.40;99.90;;;;;;5013141;28;20499;-69
2022/10/19 10:27:32;;;;;;;7.05;1.40;;;13.40;99.90;;;;;;5012197;28;20060;-70
2022/10/19 10:30:03;;;;;;;7.88;1.50;;;13.50;99.90;;;;;;5012087;28;20044;-70
2022/10/19 10:32:29;;;;;;;7.95;2.10;;;13.50;99.90;;;;;;5012379;28;20072;-70
2022/10/19 10:34:57;;;;;;;12.57;1.75;;;13.50;99.90;;;;;;5009360;28;20073;-70
2022/10/19 10:37:39;;;;;;;8.02;1.60;;;13.50;99.90;;;;;;5021722;28;20475;-70
2022/10/19 10:40:14;;;;;;;11.32;1.58;;;13.50;99.90;;;;;;5013086;28;20042;-70
2022/10/19 10:42:43;;;;;;;7.90;1.30;;;13.50;99.90;;;;;;5012792;28;20116;-70
2022/10/19 10:45:26;;;;;;;6.85;1.70;;;13.50;99.90;;;;;;5013029;28;20030;-69
2022/10/19 10:47:52;;;;;;;6.40;1.15;;;13.60;99.70;;;;;;5012923;28;20120;-69
2022/10/19 10:50:33;;;;;;;6.63;0.90;;;13.60;99.90;;;;;;5012881;28;20042;-70
2022/10/19 10:53:02;;;;;;;7.88;1.65;;;13.60;99.90;;;;;;5012520;28;20518;-70
2022/10/19 10:55:29;;;;;;;7.53;1.15;;;13.60;99.90;;;;;;5012789;28;20049;-70
2022/10/19 10:58:20;;;;;;;9.23;1.30;;;13.60;99.90;;;;;;5012783;28;20499;-70
2022/10/19 11:00:47;;;;;;;5.18;1.27;;;13.60;99.20;;;;;;5012852;28;20042;-70
2022/10/19 11:03:24;;;;;;;6.13;1.23;;;13.60;99.90;;;;;;5009803;28;20142;-70
2022/10/19 11:06:01;;;;;;;9.75;1.85;;;13.70;99.90;;;;;;5024748;28;20045;-70
2022/10/19 11:09:00;;;;;;;8.23;1.48;;;13.70;99.90;;;;;;5012750;28;20042;-70
2022/10/19 11:11:33;;;;;;;6.80;1.48;;;13.60;99.90;;;;;;5011394;28;20045;-70
2022/10/19 11:14:27;;;;;;;8.02;1.60;;;13.70;99.90;;;;;;5012762;28;20172;-70
2022/10/19 11:16:56;;;;;;;11.35;2.95;;;13.60;99.60;;;;;;5011335;28;20049;-70
2022/10/19 11:19:35;;;;;;;9.68;1.58;;;13.70;99.90;;;;;;5012545;28;20034;-71
2022/10/19 11:22:22;;;;;;;9.25;1.90;;;13.70;99.90;;;;;;5012318;28;20049;-70
2022/10/19 11:25:14;;;;;;;11.20;1.80;;;13.70;99.90;;;;;;5012266;28;20054;-69
2022/10/19 11:27:52;;;;;;;9.30;1.60;;;13.70;99.90;;;;;;5011023;28;20044;-70
2022/10/19 11:30:20;;;;;;;8.65;1.70;;;13.80;99.80;;;;;;5010908;28;20124;-70
2022/10/19 11:33:18;;;;;;;7.22;2.08;;;13.70;99.30;;;;;;5009726;28;20042;-69
2022/10/19 11:35:51;;;;;;;8.95;1.80;;;13.60;98.10;;;;;;5023069;28;20045;-70
2022/10/19 11:38:23;;;;;;;5.18;1.20;;;13.60;98.90;;;;;;5015834;28;20049;-70
2022/10/19 11:41:11;;;;;;;6.78;1.50;;;13.70;98.50;;;;;;5012055;28;20052;-70
2022/10/19 11:43:51;;;;;;;7.63;1.30;;;13.60;98.20;;;;;;5011759;28;20073;-71
2022/10/19 11:46:24;;;;;;;5.75;1.40;;;13.70;98.60;;;;;;5010898;28;20081;-70
2022/10/19 11:49:21;;;;;;;8.73;1.48;;;13.70;98.70;;;;;;5012091;28;20113;-71
2022/10/19 11:52:10;;;;;;;9.95;1.75;;;13.70;98.70;;;;;;5011996;28;20102;-70
2022/10/19 11:54:43;;;;;;;9.43;2.33;;;13.70;98.70;;;;;;5011709;28;20046;-71
2022/10/19 11:57:12;;;;;;;7.32;1.23;;;13.70;98.70;;;;;;5010798;28;20034;-70
2022/10/19 12:00:08;;;;;;;7.70;1.40;;;13.70;98.50;;;;;;5011898;28;20033;-69
2022/10/19 12:02:52;;;;;;;2.75;1.20;;;13.70;98.60;;;;;;4993772;28;20132;-70
2022/10/19 12:05:47;;;;;;;8.43;3.17;;;13.70;98.50;;;;;;5008257;28;20049;-70
2022/10/19 12:08:31;;;;;;;5.82;1.75;;;13.70;98.60;;;;;;5014096;28;20084;-71
2022/10/19 12:11:26;;;;;;;7.03;1.67;;;13.70;98.30;;;;;;5016263;28;20125;-70
2022/10/19 12:14:13;;;;;;;9.75;1.38;;;13.70;98.00;;;;;;5006539;28;20058;-70
2022/10/19 12:16:44;;;;;;;8.20;1.80;;;13.60;97.80;;;;;;5010347;28;20074;-70
2022/10/19 12:19:24;;;;;;;7.32;1.40;;;13.60;98.40;;;;;;5011554;28;20034;-70
2022/10/19 12:21:54;;;;;;;7.80;1.83;;;13.60;98.50;;;;;;5012036;28;20045;-70
2022/10/19 12:24:24;;;;;;;5.05;1.20;;;13.60;98.60;;;;;;5019837;28;20048;-70
2022/10/19 12:26:51;;;;;;;8.68;1.70;;;13.60;98.40;;;;;;5006256;28;20050;-71
2022/10/19 12:29:33;;;;;;;5.85;1.50;;;13.60;98.50;;;;;;5012759;28;20038;-70
2022/10/19 12:32:01;;;;;;;5.18;1.70;;;13.60;98.50;;;;;;5011105;28;20206;-70
2022/10/19 12:34:50;;;;;;;6.68;1.80;;;13.70;98.60;;;;;;5011182;28;20042;-69
2022/10/19 12:37:28;;;;;;;6.07;2.20;;;13.80;98.30;;;;;;5010262;28;20096;-69
2022/10/19 12:40:02;;;;;;;7.78;1.73;;;13.80;98.60;;;;;;5005143;28;20499;-69
2022/10/19 12:42:40;;;;;;;7.85;2.15;;;13.80;98.90;;;;;;5009757;28;20402;-69
2022/10/19 12:45:20;;;;;;;10.95;1.70;;;13.80;99.00;;;;;;5011124;28;20042;-69
2022/10/19 12:48:07;;;;;;;6.35;1.40;;;13.80;99.00;;;;;;5015907;28;20117;-69
2022/10/19 12:50:48;;;;;;;6.28;1.40;;;13.80;98.20;;;;;;5015352;28;20050;-69
2022/10/19 12:53:38;;;;;;;7.05;1.67;;;13.70;98.00;;;;;;5014061;28;20042;-69
2022/10/19 12:56:14;;;;;;;5.45;1.48;;;13.70;97.90;;;;;;5021478;28;20057;-69
2022/10/19 12:58:42;;;;;;;12.13;1.85;;;13.70;97.90;;;;;;5015042;28;20050;-69
2022/10/19 13:01:42;;;;;;;5.45;1.63;;;13.80;98.50;;;;;;5014822;28;20096;-69